createdAt,value
2022-08-04T00:01:51.583Z,2.00
2022-08-04T00:04:33.122Z,2.30
2022-08-04T00:07:14.076Z,2.55
2022-08-04T00:09:53.990Z,2.28
2022-08-04T00:12:31.290Z,2.28
2022-08-04T00:15:03.724Z,1.88
2022-08-04T00:17:46.758Z,2.00
2022-08-04T00:20:22.221Z,2.10
2022-08-04T00:22:58.315Z,2.25
2022-08-04T00:25:27.991Z,2.20
2022-08-04T00:27:57.826Z,2.10
2022-08-04T00:30:26.315Z,2.20
2022-08-04T00:33:03.146Z,2.20
2022-08-04T00:35:33.301Z,2.10
2022-08-04T00:38:03.394Z,2.28
2022-08-04T00:40:51.390Z,2.50
2022-08-04T00:43:38.082Z,2.00
2022-08-04T00:46:29.235Z,2.05
2022-08-04T00:49:39.934Z,1.67
2022-08-04T00:52:34.029Z,1.98
2022-08-04T00:55:08.505Z,1.80
2022-08-04T00:58:06.732Z,1.95
2022-08-04T01:01:07.660Z,2.08
2022-08-04T01:03:51.455Z,2.10
2022-08-04T01:06:39.818Z,2.08
2022-08-04T01:09:36.530Z,1.92
2022-08-04T01:12:19.433Z,2.17
2022-08-04T01:15:19.296Z,1.95
2022-08-04T01:18:02.322Z,2.35
2022-08-04T01:20:58.888Z,2.10
2022-08-04T01:23:53.172Z,2.13
2022-08-04T01:26:53.749Z,2.08
2022-08-04T01:30:04.851Z,2.30
2022-08-04T01:32:47.574Z,2.40
2022-08-04T01:35:47.029Z,2.10
2022-08-04T01:38:38.509Z,2.20
2022-08-04T01:41:14.117Z,1.95
2022-08-04T01:43:45.890Z,1.80
2022-08-04T01:46:17.228Z,2.10
2022-08-04T01:48:54.584Z,1.92
2022-08-04T01:51:24.754Z,1.95
2022-08-04T01:53:59.962Z,2.10
2022-08-04T01:56:31.949Z,1.90
2022-08-04T01:59:03.057Z,1.83
2022-08-04T02:11:03.264Z,1.58
2022-08-04T02:14:09.657Z,2.08
2022-08-04T02:16:53.009Z,1.88
2022-08-04T02:19:38.104Z,1.95
2022-08-04T02:22:09.621Z,2.08
2022-08-04T02:24:46.869Z,2.38
2022-08-04T02:27:29.056Z,2.15
2022-08-04T02:31:18.251Z,2.00
2022-08-04T02:33:52.163Z,1.95
2022-08-04T02:36:43.905Z,1.92
2022-08-04T02:39:13.933Z,1.90
2022-08-04T02:41:48.926Z,1.70
2022-08-04T02:44:23.554Z,1.80
2022-08-04T02:46:55.405Z,2.25
2022-08-04T02:49:26.776Z,1.80
2022-08-04T02:52:12.738Z,1.73
2022-08-04T02:54:45.786Z,1.58
2022-08-04T02:57:20.393Z,2.17
2022-08-04T03:06:21.824Z,1.90
2022-08-04T03:09:27.623Z,2.05
2022-08-04T03:12:35.070Z,1.67
2022-08-04T03:15:27.913Z,1.42
2022-08-04T03:18:25.740Z,1.92
2022-08-04T03:20:55.354Z,1.50
2022-08-04T03:24:40.574Z,1.95
2022-08-04T03:27:26.033Z,1.63
2022-08-04T03:30:11.871Z,2.20
2022-08-04T03:33:30.899Z,1.83
2022-08-04T03:36:27.297Z,1.85
2022-08-04T03:39:31.541Z,1.60
2022-08-04T03:42:25.013Z,1.70
2022-08-04T03:45:23.730Z,1.63
2022-08-04T03:48:17.595Z,2.00
2022-08-04T03:51:36.028Z,1.75
2022-08-04T03:54:24.996Z,1.90
2022-08-04T03:57:23.932Z,1.90
2022-08-04T04:00:12.546Z,1.73
2022-08-04T04:02:56.874Z,2.10
2022-08-04T04:05:33.006Z,1.77
2022-08-04T04:08:59.978Z,1.80
2022-08-04T04:12:03.448Z,1.70
2022-08-04T04:15:08.254Z,2.10
2022-08-04T04:18:09.449Z,2.55
2022-08-04T04:21:09.142Z,4.05
2022-08-04T04:24:13.581Z,1.98
2022-08-04T04:26:57.165Z,1.67
2022-08-04T04:30:04.973Z,1.80
2022-08-04T04:33:27.601Z,2.10
2022-08-04T04:36:17.916Z,2.38
2022-08-04T04:39:02.461Z,2.70
2022-08-04T04:41:40.048Z,5.10
2022-08-04T04:44:46.293Z,16.77
2022-08-04T04:48:09.416Z,8.50
2022-08-04T04:51:07.511Z,7.90
2022-08-04T04:54:00.275Z,7.60
2022-08-04T04:56:36.479Z,4.80
2022-08-04T04:59:11.214Z,5.00
2022-08-04T05:02:01.161Z,8.65
2022-08-04T05:04:41.809Z,6.45
2022-08-04T05:07:50.571Z,5.85
2022-08-04T05:10:38.216Z,3.10
2022-08-04T05:14:34.755Z,4.18
2022-08-04T05:17:03.601Z,4.28
2022-08-04T05:19:53.819Z,3.83
2022-08-04T05:22:41.827Z,3.40
2022-08-04T05:25:20.779Z,3.53
2022-08-04T05:28:05.787Z,2.92
2022-08-04T05:31:58.102Z,2.78
2022-08-04T05:34:31.455Z,2.97
2022-08-04T05:37:03.905Z,2.92
2022-08-04T05:39:57.914Z,3.05
2022-08-04T05:42:32.128Z,2.55
2022-08-04T05:47:31.263Z,2.72
2022-08-04T05:50:01.311Z,3.50
2022-08-04T05:52:34.409Z,2.90
2022-08-04T05:55:04.030Z,1.88
2022-08-04T05:57:34.517Z,2.30
2022-08-04T06:00:41.400Z,2.78
2022-08-04T06:04:22.705Z,2.00
2022-08-04T06:06:51.217Z,1.80
2022-08-04T06:09:20.185Z,1.30
2022-08-04T06:11:59.192Z,1.50
2022-08-04T06:14:41.414Z,1.67
2022-08-04T06:18:32.270Z,1.35
2022-08-04T06:20:18.272Z,1.52
2022-08-04T06:22:54.760Z,1.50
2022-08-04T06:25:28.788Z,1.45
2022-08-04T06:27:58.511Z,1.98
2022-08-04T06:30:32.500Z,1.50
2022-08-04T06:33:05.204Z,1.40
2022-08-04T06:35:34.415Z,1.33
2022-08-04T06:38:05.388Z,1.30
2022-08-04T06:40:35.286Z,1.50
2022-08-04T06:43:13.136Z,2.25
2022-08-04T06:45:44.901Z,1.70
2022-08-04T06:48:17.862Z,1.50
2022-08-04T06:51:26.758Z,1.85
2022-08-04T06:53:39.287Z,1.60
2022-08-04T06:56:09.002Z,1.50
2022-08-04T06:58:39.799Z,1.50
2022-08-04T07:01:09.341Z,1.88
2022-08-04T07:03:38.121Z,1.58
2022-08-04T07:06:14.074Z,1.65
2022-08-04T07:08:44.526Z,1.60
2022-08-04T07:11:13.649Z,1.48
2022-08-04T07:13:45.576Z,1.30
2022-08-04T07:16:18.542Z,1.95
2022-08-04T07:18:50.683Z,1.90
2022-08-04T07:21:24.692Z,1.67
2022-08-04T07:25:01.298Z,1.38
2022-08-04T07:27:48.167Z,2.33
2022-08-04T07:30:23.011Z,1.33
2022-08-04T07:32:54.862Z,1.20
2022-08-04T07:36:05.353Z,1.42
2022-08-04T07:38:13.399Z,1.58
2022-08-04T07:40:45.983Z,1.63
2022-08-04T07:43:17.123Z,1.55
2022-08-04T07:45:45.479Z,1.63
2022-08-04T07:48:15.910Z,1.75
2022-08-04T07:50:45.650Z,1.52
2022-08-04T07:53:54.290Z,1.40
2022-08-04T07:56:04.445Z,1.70
2022-08-04T07:58:34.701Z,1.60
2022-08-04T08:01:03.161Z,1.40
2022-08-04T08:03:32.228Z,1.88
2022-08-04T08:06:17.363Z,1.63
2022-08-04T08:08:48.483Z,1.58
2022-08-04T08:11:18.132Z,1.55
2022-08-04T08:13:46.600Z,1.90
2022-08-04T08:16:15.149Z,1.40
2022-08-04T08:18:50.048Z,1.55
2022-08-04T08:21:21.357Z,1.50
2022-08-04T08:23:50.824Z,1.42
2022-08-04T08:26:18.859Z,2.20
2022-08-04T08:28:47.384Z,1.75
2022-08-04T08:31:15.749Z,8.90
2022-08-04T08:33:44.485Z,2.17
2022-08-04T08:36:16.507Z,1.70
2022-08-04T08:38:55.474Z,1.80
2022-08-04T08:41:53.205Z,1.85
2022-08-04T08:44:43.509Z,2.15
2022-08-04T08:48:05.316Z,2.35
2022-08-04T08:51:18.501Z,1.73
2022-08-04T08:54:05.664Z,1.38
2022-08-04T08:56:55.363Z,1.50
2022-08-04T08:59:41.767Z,1.45
2022-08-04T09:02:10.776Z,1.40
2022-08-04T09:04:50.399Z,1.50
2022-08-04T09:07:49.840Z,1.40
2022-08-04T09:10:45.824Z,1.40
2022-08-04T09:13:34.745Z,1.63
2022-08-04T09:16:18.292Z,1.70
2022-08-04T09:19:05.797Z,1.38
2022-08-04T09:21:49.344Z,1.40
2022-08-04T09:24:35.754Z,1.35
2022-08-04T09:27:16.379Z,1.60
2022-08-04T09:30:07.750Z,1.40
2022-08-04T09:33:04.492Z,1.42
2022-08-04T09:35:59.955Z,1.60
2022-08-04T09:38:50.234Z,1.35
2022-08-04T09:41:48.123Z,1.60
2022-08-04T09:44:48.953Z,1.40
2022-08-04T09:50:38.892Z,1.40
2022-08-04T09:53:25.415Z,1.42
2022-08-04T09:56:03.786Z,1.33
2022-08-04T09:59:07.449Z,1.73
2022-08-04T10:01:37.131Z,1.47
2022-08-04T10:04:12.414Z,1.30
2022-08-04T10:07:00.117Z,1.40
2022-08-04T10:09:56.671Z,1.40
2022-08-04T10:12:59.328Z,1.20
2022-08-04T10:15:41.555Z,1.40
2022-08-04T10:18:26.969Z,1.50
2022-08-04T10:21:15.590Z,1.73
2022-08-04T10:24:02.178Z,1.63
2022-08-04T10:27:05.024Z,1.27
2022-08-04T10:29:47.288Z,1.58
2022-08-04T10:32:43.111Z,1.48
2022-08-04T10:35:24.126Z,1.30
2022-08-04T10:38:10.512Z,1.25
2022-08-04T10:40:49.409Z,1.67
2022-08-04T10:43:39.985Z,1.40
2022-08-04T10:46:08.270Z,1.25
2022-08-04T10:48:36.254Z,1.15
2022-08-04T10:51:28.307Z,1.58
2022-08-04T10:54:08.658Z,1.17
2022-08-04T10:56:55.107Z,1.48
2022-08-04T10:59:39.074Z,1.45
2022-08-04T11:02:43.443Z,1.30
2022-08-04T11:05:44.029Z,1.25
2022-08-04T11:08:36.219Z,1.63
2022-08-04T11:11:15.695Z,1.27
2022-08-04T11:13:48.092Z,1.40
2022-08-04T11:16:30.262Z,1.10
2022-08-04T11:19:21.389Z,1.00
2022-08-04T11:22:23.725Z,1.27
2022-08-04T11:25:21.512Z,1.20
2022-08-04T11:28:30.637Z,1.17
2022-08-04T11:31:23.872Z,1.13
2022-08-04T11:34:22.909Z,1.30
2022-08-04T11:37:16.187Z,1.10
2022-08-04T11:40:07.398Z,1.08
2022-08-04T11:42:42.492Z,1.33
2022-08-04T11:45:19.941Z,1.20
2022-08-04T11:47:58.604Z,1.00
2022-08-04T11:50:56.842Z,1.20
2022-08-04T11:53:34.714Z,1.45
2022-08-04T11:56:11.198Z,1.15
2022-08-04T11:58:41.041Z,1.20
2022-08-04T12:01:29.655Z,1.58
2022-08-04T12:04:27.342Z,1.27
2022-08-04T12:07:30.694Z,1.30
2022-08-04T12:10:10.318Z,1.30
2022-08-04T12:12:50.997Z,1.10
2022-08-04T12:15:30.671Z,1.48
2022-08-04T12:18:08.414Z,1.15
2022-08-04T12:20:48.763Z,1.33
2022-08-04T12:23:38.407Z,1.50
2022-08-04T12:26:21.280Z,1.20
2022-08-04T12:29:09.723Z,1.48
2022-08-04T12:31:54.045Z,1.60
2022-08-04T12:34:47.419Z,1.70
2022-08-04T12:37:30.260Z,1.67
2022-08-04T12:40:28.142Z,1.83
2022-08-04T12:43:18.414Z,1.90
2022-08-04T12:45:55.598Z,1.48
2022-08-04T12:48:26.811Z,1.50
2022-08-04T12:50:57.225Z,1.60
2022-08-04T12:53:51.122Z,1.30
2022-08-04T12:56:28.592Z,1.55
2022-08-04T12:59:18.157Z,1.48
2022-08-04T13:02:11.319Z,1.10
2022-08-04T13:04:51.528Z,1.27
2022-08-04T13:07:25.785Z,1.60
2022-08-04T13:09:54.377Z,1.25
2022-08-04T13:12:32.048Z,1.23
2022-08-04T13:15:17.703Z,1.27
2022-08-04T13:17:57.247Z,1.40
2022-08-04T13:20:36.379Z,1.30
2022-08-04T13:23:14.532Z,1.60
2022-08-04T13:26:44.385Z,1.38
2022-08-04T13:28:44.162Z,1.20
2022-08-04T13:31:19.937Z,1.23
2022-08-04T13:33:53.424Z,1.60
2022-08-04T13:39:01.696Z,1.30
2022-08-04T13:41:31.421Z,1.60
2022-08-04T13:44:19.111Z,1.33
2022-08-04T13:46:52.095Z,1.58
2022-08-04T13:49:42.456Z,1.30
2022-08-04T13:52:11.084Z,1.50
2022-08-04T13:54:47.331Z,1.48
2022-08-04T13:57:28.081Z,1.30
2022-08-04T14:00:01.751Z,1.20
2022-08-04T14:02:45.155Z,1.13
2022-08-04T14:05:28.009Z,1.20
2022-08-04T14:08:24.889Z,1.45
2022-08-04T14:10:57.031Z,1.30
2022-08-04T14:13:41.248Z,1.20
2022-08-04T14:16:22.333Z,1.27
2022-08-04T14:19:01.858Z,1.08
2022-08-04T14:21:36.424Z,1.00
2022-08-04T14:24:04.312Z,1.30
2022-08-04T14:26:37.130Z,1.20
2022-08-04T14:29:26.789Z,1.27
2022-08-04T14:32:10.761Z,1.30
2022-08-04T14:34:45.967Z,1.48
2022-08-04T14:37:20.586Z,1.45
2022-08-04T14:40:18.027Z,1.10
2022-08-04T14:42:54.620Z,1.42
2022-08-04T14:45:53.868Z,1.00
2022-08-04T14:48:23.113Z,1.52
2022-08-04T14:50:52.596Z,1.55
2022-08-04T14:53:31.102Z,1.17
2022-08-04T14:56:00.309Z,1.15
2022-08-04T14:58:39.063Z,1.60
2022-08-04T15:01:11.804Z,1.13
2022-08-04T15:03:49.831Z,1.23
2022-08-04T15:06:28.071Z,1.30
2022-08-04T15:08:58.653Z,1.30
2022-08-04T15:11:29.765Z,1.40
2022-08-04T15:13:59.503Z,1.10
2022-08-04T15:16:30.378Z,1.20
2022-08-04T15:19:00.072Z,1.30
2022-08-04T15:21:29.807Z,1.30
2022-08-04T15:23:58.874Z,1.67
2022-08-04T15:26:34.132Z,1.30
2022-08-04T15:30:00.743Z,1.10
2022-08-04T15:32:25.261Z,1.30
2022-08-04T15:35:04.018Z,1.00
2022-08-04T15:37:37.646Z,1.00
2022-08-04T15:40:16.760Z,1.00
2022-08-04T15:43:01.207Z,1.20
2022-08-04T15:46:37.178Z,1.65
2022-08-04T15:48:21.084Z,1.10
2022-08-04T15:51:08.492Z,1.40
2022-08-04T15:54:02.701Z,1.20
2022-08-04T15:56:37.450Z,1.40
2022-08-04T15:59:05.712Z,1.35
2022-08-04T16:01:33.711Z,1.20
2022-08-04T16:04:21.832Z,1.35
2022-08-04T16:06:49.664Z,1.52
2022-08-04T16:09:45.713Z,1.63
2022-08-04T16:12:54.697Z,1.50
2022-08-04T16:15:43.870Z,1.30
2022-08-04T16:18:26.648Z,1.17
2022-08-04T16:21:01.742Z,1.60
2022-08-04T16:23:54.285Z,1.55
2022-08-04T16:26:42.412Z,5.07
2022-08-04T16:29:23.556Z,1.50
2022-08-04T16:32:07.345Z,1.52
2022-08-04T16:34:54.824Z,1.13
2022-08-04T16:37:35.747Z,1.40
2022-08-04T16:40:33.653Z,1.30
2022-08-04T16:43:09.339Z,1.20
2022-08-04T16:48:14.939Z,1.30
2022-08-04T16:51:06.480Z,1.20
2022-08-04T16:54:04.650Z,1.30
2022-08-04T16:56:35.868Z,1.48
2022-08-04T16:59:11.865Z,1.40
2022-08-04T17:01:51.041Z,1.58
2022-08-04T17:04:28.348Z,1.67
2022-08-04T17:07:02.226Z,1.23
2022-08-04T17:09:30.825Z,1.70
2022-08-04T17:11:59.372Z,1.50
2022-08-04T17:14:29.556Z,1.42
2022-08-04T17:17:01.881Z,1.33
2022-08-04T17:19:29.772Z,1.00
2022-08-04T17:22:20.552Z,1.67
2022-08-04T17:24:49.419Z,1.50
2022-08-04T17:30:25.350Z,1.77
2022-08-04T17:32:53.692Z,1.60
2022-08-04T17:35:21.945Z,1.73
2022-08-04T17:37:52.942Z,1.70
2022-08-04T17:44:01.132Z,1.42
2022-08-04T17:46:36.174Z,1.70
2022-08-04T17:49:20.370Z,2.10
2022-08-04T17:52:02.535Z,1.60
2022-08-04T17:54:43.455Z,1.50
2022-08-04T17:57:22.173Z,2.17
2022-08-04T17:59:57.970Z,2.50
2022-08-04T18:02:33.030Z,1.50
2022-08-04T18:05:06.739Z,2.50
2022-08-04T18:08:35.220Z,2.10
2022-08-04T18:10:55.051Z,2.10
2022-08-04T18:13:26.222Z,2.13
2022-08-04T18:16:14.352Z,2.00
2022-08-04T18:19:19.131Z,1.95
2022-08-04T18:22:27.727Z,2.65
2022-08-04T18:25:00.933Z,2.03
2022-08-04T18:27:33.108Z,1.95
2022-08-04T18:30:27.986Z,2.45
2022-08-04T18:33:24.306Z,1.98
2022-08-04T18:36:35.283Z,2.08
2022-08-04T18:38:36.517Z,1.95
2022-08-04T18:41:22.598Z,2.08
2022-08-04T18:43:55.585Z,2.00
2022-08-04T18:46:26.881Z,2.33
2022-08-04T18:48:55.780Z,2.45
2022-08-04T18:51:25.184Z,2.28
2022-08-04T18:53:59.434Z,2.35
2022-08-04T18:56:29.854Z,1.98
2022-08-04T18:59:03.073Z,2.03
2022-08-04T19:02:12.278Z,2.20
2022-08-04T19:04:32.760Z,2.10
2022-08-04T19:07:26.596Z,4.30
2022-08-04T19:09:59.747Z,1.90
2022-08-04T19:12:28.650Z,1.98
2022-08-04T19:17:52.492Z,2.08
2022-08-04T19:20:25.498Z,2.25
2022-08-04T19:24:29.657Z,2.42
2022-08-04T19:26:02.712Z,2.42
2022-08-04T19:28:36.547Z,2.20
2022-08-04T19:31:08.215Z,2.05
2022-08-04T19:36:31.100Z,2.38
2022-08-04T19:39:01.690Z,2.53
2022-08-04T19:41:31.924Z,1.88
2022-08-04T19:44:00.099Z,2.30
2022-08-04T19:46:28.928Z,2.55
2022-08-04T19:48:59.474Z,2.08
2022-08-04T19:51:38.888Z,2.00
2022-08-04T19:54:23.527Z,2.00
2022-08-04T19:56:51.518Z,1.80
2022-08-04T19:59:19.610Z,1.83
2022-08-04T20:01:47.675Z,1.65
2022-08-04T20:04:16.183Z,1.70
2022-08-04T20:06:44.555Z,2.72
2022-08-04T20:09:24.470Z,2.00
2022-08-04T20:11:56.459Z,2.28
2022-08-04T20:14:33.524Z,1.63
2022-08-04T20:17:03.214Z,1.80
2022-08-04T20:19:39.430Z,1.88
2022-08-04T20:22:51.249Z,1.77
2022-08-04T20:25:01.011Z,1.80
2022-08-04T20:27:59.312Z,1.60
2022-08-04T20:30:30.165Z,2.13
2022-08-04T20:33:00.081Z,2.00
2022-08-04T20:36:03.313Z,1.60
2022-08-04T20:38:33.033Z,1.83
2022-08-04T20:41:02.938Z,1.75
2022-08-04T20:43:31.914Z,1.80
2022-08-04T20:46:02.363Z,2.15
2022-08-04T20:48:45.794Z,2.35
2022-08-04T20:51:20.124Z,1.77
2022-08-04T20:54:00.339Z,1.67
2022-08-04T20:56:30.548Z,2.00
2022-08-04T20:59:00.783Z,1.98
2022-08-04T21:01:30.140Z,1.98
2022-08-04T21:04:27.223Z,2.53
2022-08-04T21:06:56.087Z,1.60
2022-08-04T21:09:36.868Z,1.50
2022-08-04T21:12:10.437Z,1.73
2022-08-04T21:14:38.394Z,1.90
2022-08-04T21:17:11.024Z,1.92
2022-08-04T21:19:44.754Z,1.70
2022-08-04T21:25:06.535Z,2.88
2022-08-04T21:27:39.372Z,2.25
2022-08-04T21:30:23.857Z,1.80
2022-08-04T21:32:52.242Z,2.13
2022-08-04T21:35:19.966Z,1.80
2022-08-04T21:37:58.184Z,2.05
2022-08-04T21:40:36.957Z,1.80
2022-08-04T21:43:08.208Z,1.65
2022-08-04T21:45:37.760Z,1.90
2022-08-04T21:48:06.005Z,1.85
2022-08-04T21:50:33.702Z,2.10
2022-08-04T21:53:01.532Z,1.98
2022-08-04T21:56:00.268Z,2.15
2022-08-04T21:58:17.578Z,2.05
2022-08-04T22:00:54.964Z,2.30
2022-08-04T22:03:51.776Z,2.22
2022-08-04T22:06:17.542Z,2.60
2022-08-04T22:08:49.396Z,2.10
2022-08-04T22:11:26.061Z,2.92
2022-08-04T22:14:10.689Z,2.50
2022-08-04T22:16:40.003Z,3.63
2022-08-04T22:19:08.972Z,2.90
2022-08-04T22:21:45.375Z,2.97
2022-08-04T22:24:14.695Z,2.40
2022-08-04T22:26:42.507Z,2.58
2022-08-04T22:29:14.490Z,2.28
2022-08-04T22:31:56.296Z,2.38
2022-08-04T22:34:25.518Z,2.50
2022-08-04T22:36:54.011Z,2.45
2022-08-04T22:39:23.573Z,2.05
2022-08-04T22:42:03.132Z,2.20
2022-08-04T22:44:33.921Z,2.00
2022-08-04T22:47:04.608Z,2.42
2022-08-04T22:49:37.283Z,1.75
2022-08-04T22:52:12.352Z,2.20
2022-08-04T22:54:46.844Z,1.95
2022-08-04T22:57:16.680Z,2.10
2022-08-04T22:59:44.342Z,2.47
2022-08-04T23:02:16.846Z,2.45
2022-08-04T23:04:44.718Z,2.05
2022-08-04T23:07:17.772Z,2.10
2022-08-04T23:09:51.906Z,2.08
2022-08-04T23:12:25.345Z,1.80
2022-08-04T23:14:58.842Z,1.85
2022-08-04T23:17:35.207Z,1.88
2022-08-04T23:20:23.037Z,2.08
2022-08-04T23:22:55.893Z,2.03
2022-08-04T23:25:33.120Z,2.00
2022-08-04T23:28:12.721Z,2.50
2022-08-04T23:30:40.696Z,1.63
2022-08-04T23:33:13.385Z,1.77
2022-08-04T23:35:43.283Z,2.33
2022-08-04T23:38:31.063Z,2.50
2022-08-04T23:41:08.390Z,2.28
2022-08-04T23:43:54.914Z,2.30
2022-08-04T23:46:23.860Z,2.17
2022-08-04T23:48:52.278Z,2.30
2022-08-04T23:51:20.368Z,2.10
2022-08-04T23:54:03.182Z,1.60
2022-08-04T23:56:34.460Z,1.75
2022-08-04T23:59:03.653Z,1.80
